Time;durP1;ratioP1;P1;durP2;ratioP2;P2;SDS_P1;SDS_P2;PMS_P1;PMS_P2;Temp;Humidity;BMP_temperature;BMP_pressure;BME280_temperature;BME280_humidity;BME280_pressure;Samples;Min_cycle;Max_cycle;Signal;HPM_P1;HPM_P2
2023/01/19 00:02:46;;;;;;;42.80;25.20;;;;;;;0.53;100.00;98083.27;450404;1251;143945;-66
2023/01/19 00:12:52;;;;;;;33.60;23.20;;;;;;;0.51;100.00;98103.02;449542;1251;143909;-65
2023/01/19 00:22:57;;;;;;;36.60;22.80;;;;;;;0.50;100.00;98111.98;447234;1252;143671;-65
2023/01/19 00:33:04;;;;;;;33.20;22.00;;;;;;;0.51;100.00;98123.80;448374;1251;142426;-65
2023/01/19 00:43:09;;;;;;;33.40;22.30;;;;;;;0.53;100.00;98127.87;449552;1251;145621;-66
2023/01/19 00:53:15;;;;;;;37.20;23.80;;;;;;;0.56;100.00;98133.08;450427;1250;143581;-66
2023/01/19 01:03:26;;;;;;;43.10;26.60;;;;;;;0.50;100.00;98135.23;440323;1251;142796;-66
2023/01/19 01:13:33;;;;;;;41.60;24.70;;;;;;;0.51;100.00;98142.41;433647;1253;142156;-66
2023/01/19 01:23:39;;;;;;;42.70;25.70;;;;;;;0.50;100.00;98137.11;438798;1252;185482;-66
2023/01/19 01:33:44;;;;;;;39.90;24.60;;;;;;;0.45;100.00;98130.33;438454;1251;142453;-67
2023/01/19 01:43:55;;;;;;;41.60;26.00;;;;;;;0.43;100.00;98119.55;450388;1251;142665;-68
2023/01/19 01:54:11;;;;;;;42.90;28.00;;;;;;;0.46;100.00;98116.84;450391;1251;143521;-66
2023/01/19 02:04:18;;;;;;;45.90;29.90;;;;;;;0.50;100.00;98113.91;449757;1251;196807;-67
2023/01/19 02:14:24;;;;;;;38.90;25.00;;;;;;;0.39;100.00;98116.98;450429;1251;143303;-66
2023/01/19 02:24:29;;;;;;;39.80;25.20;;;;;;;0.07;100.00;98117.36;449052;1254;143460;-67
2023/01/19 02:34:36;;;;;;;44.40;27.40;;;;;;;-0.07;100.00;98106.98;450503;1251;142759;-67
2023/01/19 02:44:48;;;;;;;39.90;25.70;;;;;;;-0.17;100.00;98115.66;450502;1250;142644;-66
2023/01/19 02:55:04;;;;;;;35.70;24.30;;;;;;;-0.32;100.00;98117.17;449756;1251;147037;-66
2023/01/19 03:05:21;;;;;;;38.70;26.50;;;;;;;-0.59;100.00;98121.92;449016;1252;143492;-66
2023/01/19 03:15:32;;;;;;;41.20;24.50;;;;;;;-0.92;100.00;98124.31;449580;1251;144101;-66
2023/01/19 03:25:42;;;;;;;38.70;26.30;;;;;;;-1.22;100.00;98118.95;444529;1250;144326;-68
2023/01/19 03:35:53;;;;;;;45.00;28.40;;;;;;;-1.40;100.00;98132.86;450525;1252;143037;-67
2023/01/19 03:46:00;;;;;;;46.10;27.00;;;;;;;-1.27;100.00;98147.32;449739;1251;143094;-66
2023/01/19 03:56:09;;;;;;;50.30;29.70;;;;;;;-1.06;100.00;98167.81;450457;1254;143010;-67
2023/01/19 04:06:15;;;;;;;41.80;26.70;;;;;;;-0.87;100.00;98181.48;450453;1253;143303;-67
2023/01/19 04:16:22;;;;;;;49.90;30.60;;;;;;;-0.69;100.00;98184.02;448086;1252;207056;-66
2023/01/19 04:26:28;;;;;;;48.20;31.20;;;;;;;-0.57;100.00;98182.85;450369;1251;142988;-68
2023/01/19 04:36:34;;;;;;;48.90;32.30;;;;;;;-0.46;100.00;98186.55;449659;1251;143210;-66
2023/01/19 04:46:40;;;;;;;44.70;31.10;;;;;;;-0.38;100.00;98194.98;450547;1252;144301;-67
2023/01/19 04:56:46;;;;;;;50.40;32.10;;;;;;;-0.27;100.00;98213.95;450479;1251;146623;-68
2023/01/19 05:06:53;;;;;;;50.50;32.80;;;;;;;-0.17;100.00;98221.45;439033;1253;143957;-66
2023/01/19 05:16:59;;;;;;;59.80;38.00;;;;;;;-0.12;100.00;98235.72;444327;1251;143221;-66
2023/01/19 05:27:05;;;;;;;54.80;34.30;;;;;;;-0.16;100.00;98245.52;436255;1255;146495;-65
2023/01/19 05:37:11;;;;;;;48.00;33.50;;;;;;;-0.16;100.00;98264.09;445561;1251;142305;-67
2023/01/19 05:47:16;;;;;;;56.40;37.30;;;;;;;-0.11;100.00;98272.47;450396;1252;142791;-67
2023/01/19 05:57:22;;;;;;;47.60;34.40;;;;;;;-0.11;100.00;98278.01;449662;1251;162543;-67
2023/01/19 06:07:28;;;;;;;48.60;34.20;;;;;;;-0.10;100.00;98311.81;450474;1251;142891;-65
2023/01/19 06:17:35;;;;;;;49.30;32.00;;;;;;;-0.16;100.00;98334.59;450411;1252;143337;-65
2023/01/19 06:27:45;;;;;;;49.00;31.50;;;;;;;-0.10;100.00;98342.77;438657;1253;142920;-65
2023/01/19 06:37:52;;;;;;;52.80;35.10;;;;;;;-0.06;100.00;98342.13;450322;1252;142224;-66
2023/01/19 06:47:57;;;;;;;46.40;27.60;;;;;;;-0.02;100.00;98347.11;450269;1255;145913;-66
2023/01/19 06:58:03;;;;;;;47.00;29.50;;;;;;;0.02;100.00;98341.13;449577;1251;143090;-65
2023/01/19 07:08:09;;;;;;;53.80;30.20;;;;;;;0.10;100.00;98339.77;450475;1251;142818;-65
2023/01/19 07:18:15;;;;;;;57.00;29.10;;;;;;;0.15;100.00;98342.29;445820;1251;142790;-66
2023/01/19 07:28:21;;;;;;;50.90;27.30;;;;;;;0.14;100.00;98357.83;439276;1251;212444;-65
2023/01/19 07:38:27;;;;;;;55.70;30.00;;;;;;;0.14;100.00;98381.91;443961;1251;142516;-65
2023/01/19 07:48:33;;;;;;;50.40;29.00;;;;;;;0.18;100.00;98395.36;448279;1251;143543;-65
2023/01/19 07:58:39;;;;;;;56.20;30.50;;;;;;;0.23;100.00;98408.92;450270;1251;144752;-66
2023/01/19 08:08:45;;;;;;;58.60;30.30;;;;;;;0.28;100.00;98409.60;450364;1253;145558;-65
2023/01/19 08:18:51;;;;;;;47.40;27.30;;;;;;;0.31;100.00;98415.50;449562;1254;142594;-65
2023/01/19 08:28:58;;;;;;;45.80;26.30;;;;;;;0.28;100.00;98420.97;450017;1254;144030;-66
2023/01/19 08:39:04;;;;;;;41.20;24.00;;;;;;;0.36;100.00;98425.60;450341;1251;143271;-66
2023/01/19 08:49:10;;;;;;;50.30;30.20;;;;;;;0.47;100.00;98418.80;449632;1251;142449;-66
2023/01/19 08:59:16;;;;;;;51.30;25.90;;;;;;;0.56;100.00;98422.73;450383;1251;142818;-66
2023/01/19 09:09:22;;;;;;;52.60;27.30;;;;;;;0.63;100.00;98429.17;444885;1251;142678;-66
2023/01/19 09:19:28;;;;;;;50.60;25.90;;;;;;;0.56;100.00;98432.40;450316;1251;142835;-65
2023/01/19 09:29:35;;;;;;;45.60;26.10;;;;;;;0.47;100.00;98429.13;450192;1250;142676;-66
2023/01/19 09:39:40;;;;;;;37.30;23.70;;;;;;;0.50;100.00;98425.56;449552;1251;144182;-65
2023/01/19 09:49:51;;;;;;;34.70;20.50;;;;;;;0.60;100.00;98418.09;441871;1251;142648;-65
2023/01/19 09:59:58;;;;;;;34.20;20.70;;;;;;;0.76;100.00;98409.34;448088;1251;142173;-65
2023/01/19 10:10:12;;;;;;;35.40;20.50;;;;;;;0.82;100.00;98411.64;449597;1251;144303;-65
2023/01/19 10:20:21;;;;;;;33.90;19.00;;;;;;;0.76;100.00;98421.56;450383;1250;142664;-65
2023/01/19 10:30:30;;;;;;;34.00;20.60;;;;;;;0.72;100.00;98431.05;444386;1251;143147;-65
2023/01/19 10:40:42;;;;;;;33.40;20.10;;;;;;;0.74;100.00;98436.45;450238;1251;142652;-66
2023/01/19 10:50:48;;;;;;;40.20;23.60;;;;;;;0.81;100.00;98434.80;450268;1251;142191;-65
2023/01/19 11:00:54;;;;;;;37.00;22.20;;;;;;;0.76;100.00;98422.08;434262;1252;143145;-66
2023/01/19 11:11:03;;;;;;;45.30;25.60;;;;;;;0.75;100.00;98417.64;450246;1250;142624;-66
2023/01/19 11:21:12;;;;;;;41.60;22.20;;;;;;;0.77;100.00;98415.67;450223;1251;141704;-66
2023/01/19 11:31:32;;;;;;;35.50;20.50;;;;;;;0.83;100.00;98415.20;449558;1251;143922;-66
2023/01/19 11:41:40;;;;;;;32.50;19.40;;;;;;;1.00;100.00;98406.42;450138;1251;142848;-65
2023/01/19 11:51:52;;;;;;;23.90;14.60;;;;;;;1.22;100.00;98400.27;449534;1251;144286;-66
2023/01/19 12:02:04;;;;;;;24.50;15.50;;;;;;;1.21;100.00;98395.16;450286;1250;143601;-66
2023/01/19 12:12:16;;;;;;;25.30;16.80;;;;;;;1.36;100.00;98389.30;450252;1251;142731;-65
2023/01/19 12:22:27;;;;;;;26.50;15.60;;;;;;;1.28;100.00;98383.98;449405;1251;198792;-65
2023/01/19 12:32:36;;;;;;;28.80;19.20;;;;;;;1.22;100.00;98382.87;450230;1251;143298;-66
2023/01/19 12:42:46;;;;;;;24.70;17.90;;;;;;;1.04;100.00;98371.09;449470;1251;143637;-66
2023/01/19 12:52:56;;;;;;;22.00;16.40;;;;;;;1.00;100.00;98380.55;450267;1251;142233;-65
2023/01/19 13:03:04;;;;;;;26.90;16.20;;;;;;;0.95;100.00;98383.69;450166;1251;143090;-66
2023/01/19 13:13:19;;;;;;;24.80;15.70;;;;;;;0.99;100.00;98396.45;449441;1251;142790;-67
2023/01/19 13:23:27;;;;;;;21.70;14.70;;;;;;;1.00;100.00;98403.15;449333;1251;142273;-66
2023/01/19 13:33:40;;;;;;;22.60;14.70;;;;;;;0.97;99.96;98409.83;449514;1251;144057;-65
2023/01/19 13:43:47;;;;;;;24.20;17.00;;;;;;;0.93;99.76;98414.32;450269;1251;142499;-65
2023/01/19 13:53:57;;;;;;;17.50;13.70;;;;;;;0.79;99.51;98407.15;450346;1251;146750;-65
2023/01/19 14:04:03;;;;;;;21.40;14.20;;;;;;;0.69;99.22;98414.27;449635;1252;144026;-66
2023/01/19 14:14:23;;;;;;;21.90;15.00;;;;;;;0.64;99.04;98418.45;450393;1251;142373;-66
2023/01/19 14:24:31;;;;;;;23.40;14.00;;;;;;;0.58;98.86;98424.91;444612;1251;141678;-65
2023/01/19 14:34:40;;;;;;;20.80;14.30;;;;;;;0.51;99.00;98428.96;450313;1251;142356;-66
2023/01/19 14:44:49;;;;;;;21.80;15.40;;;;;;;0.49;99.05;98429.58;450419;1250;146270;-66
2023/01/19 14:54:57;;;;;;;23.60;16.40;;;;;;;0.43;98.93;98443.60;449598;1251;142268;-65
2023/01/19 15:05:02;;;;;;;24.70;15.40;;;;;;;0.41;98.75;98455.91;440661;1250;142349;-66
2023/01/19 15:15:15;;;;;;;23.20;15.80;;;;;;;0.36;98.76;98457.64;450303;1251;143170;-66
2023/01/19 15:25:24;;;;;;;23.00;15.10;;;;;;;0.30;98.78;98463.73;447394;1251;211588;-65
2023/01/19 15:35:30;;;;;;;23.30;15.40;;;;;;;0.32;99.07;98470.04;450351;1251;143174;-66
2023/01/19 15:45:39;;;;;;;23.00;16.10;;;;;;;0.32;99.16;98475.89;433131;1253;142755;-65
2023/01/19 15:55:48;;;;;;;28.30;18.40;;;;;;;0.23;99.06;98485.68;436074;1252;148332;-65
2023/01/19 16:05:54;;;;;;;28.60;18.80;;;;;;;0.16;99.26;98488.91;448503;1251;143899;-65
2023/01/19 16:16:03;;;;;;;27.60;19.90;;;;;;;0.18;99.32;98491.23;433559;1251;141926;-67
2023/01/19 16:26:23;;;;;;;35.80;22.70;;;;;;;0.15;99.40;98508.92;450147;1251;143685;-67
2023/01/19 16:36:31;;;;;;;28.60;18.30;;;;;;;0.07;99.34;98515.06;449334;1251;143161;-65
2023/01/19 16:46:39;;;;;;;31.00;21.10;;;;;;;-0.02;99.22;98506.80;450147;1250;143505;-64
2023/01/19 16:56:45;;;;;;;26.80;17.60;;;;;;;-0.05;99.34;98510.52;450105;1251;143433;-66
2023/01/19 17:06:51;;;;;;;28.70;19.30;;;;;;;-0.04;99.44;98505.85;449514;1250;142444;-66
2023/01/19 17:16:57;;;;;;;26.50;19.70;;;;;;;-0.03;99.41;98497.38;450343;1251;142969;-65
2023/01/19 17:27:04;;;;;;;29.90;19.80;;;;;;;-0.04;99.55;98492.95;450381;1250;142903;-67
2023/01/19 17:37:10;;;;;;;27.20;18.50;;;;;;;-0.05;99.39;98492.13;449426;1250;142933;-66
2023/01/19 17:47:15;;;;;;;31.70;21.10;;;;;;;-0.08;99.50;98501.99;450353;1251;142438;-66
2023/01/19 17:57:21;;;;;;;29.30;18.80;;;;;;;-0.09;99.59;98504.27;442747;1251;188468;-66
2023/01/19 18:07:28;;;;;;;32.20;20.90;;;;;;;-0.16;99.54;98514.36;440004;1251;141959;-67
2023/01/19 18:17:32;;;;;;;;;;;;;;;-0.19;99.71;98519.29;450012;1251;142979;-66
2023/01/19 18:27:38;;;;;;;30.10;19.50;;;;;;;-0.19;99.87;98524.77;449671;1252;127760;-66
2023/01/19 18:37:44;;;;;;;27.30;18.80;;;;;;;-0.17;99.90;98519.58;450384;1251;144373;-66
2023/01/19 18:47:50;;;;;;;28.50;19.90;;;;;;;-0.12;99.97;98520.59;440099;1254;188830;-65
2023/01/19 18:57:56;;;;;;;31.40;19.70;;;;;;;-0.12;99.92;98524.70;448995;1251;143229;-66
2023/01/19 19:08:02;;;;;;;35.10;22.10;;;;;;;-0.11;99.86;98528.81;450446;1251;143221;-66
2023/01/19 19:18:10;;;;;;;31.70;22.50;;;;;;;-0.08;99.94;98536.43;447032;1252;142199;-66
2023/01/19 19:28:17;;;;;;;30.70;19.90;;;;;;;-0.08;99.92;98543.15;445581;1252;142991;-65
2023/01/19 19:38:23;;;;;;;31.50;20.40;;;;;;;-0.09;99.97;98544.89;440191;1251;141940;-65
2023/01/19 19:48:29;;;;;;;29.90;20.90;;;;;;;-0.14;99.91;98545.77;439354;1254;143100;-65
2023/01/19 19:58:36;;;;;;;32.70;21.10;;;;;;;-0.19;100.00;98558.50;450351;1252;144354;-66
2023/01/19 20:08:40;;;;;;;;;;;;;;;-0.18;100.00;98571.72;450278;1252;143642;-66
2023/01/19 20:18:50;;;;;;;26.40;19.70;;;;;;;-0.14;100.00;98586.20;449400;1253;129727;-65
2023/01/19 20:28:59;;;;;;;33.10;19.80;;;;;;;-0.17;99.97;98593.19;435937;1253;187523;-65
2023/01/19 20:39:10;;;;;;;30.40;20.60;;;;;;;-0.19;100.00;98587.73;450173;1251;142378;-65
2023/01/19 20:49:16;;;;;;;30.30;19.80;;;;;;;-0.16;99.97;98602.12;447832;1251;148972;-66
2023/01/19 20:59:22;;;;;;;36.30;21.90;;;;;;;-0.18;99.91;98603.54;445224;1251;142887;-66
2023/01/19 21:09:27;;;;;;;37.10;22.50;;;;;;;-0.22;99.98;98620.56;449712;1250;143428;-66
2023/01/19 21:19:34;;;;;;;37.80;23.10;;;;;;;-0.19;99.98;98642.11;445149;1250;143400;-66
2023/01/19 21:29:40;;;;;;;44.20;26.40;;;;;;;-0.18;100.00;98652.24;442796;1251;145980;-67
2023/01/19 21:39:46;;;;;;;45.60;27.00;;;;;;;-0.17;100.00;98664.93;449565;1252;142703;-66
2023/01/19 21:49:52;;;;;;;46.90;28.40;;;;;;;-0.16;100.00;98688.46;446417;1255;146260;-65
2023/01/19 21:59:58;;;;;;;54.90;30.80;;;;;;;-0.18;100.00;98704.70;439340;1250;143316;-66
2023/01/19 22:10:04;;;;;;;52.10;29.20;;;;;;;-0.18;100.00;98722.41;439013;1251;143073;-66
2023/01/19 22:20:13;;;;;;;51.80;27.70;;;;;;;-0.20;100.00;98728.86;449399;1251;143101;-67
2023/01/19 22:30:20;;;;;;;48.50;27.30;;;;;;;-0.19;100.00;98743.80;440518;1252;143324;-69
2023/01/19 22:40:26;;;;;;;36.80;22.80;;;;;;;-0.21;100.00;98759.16;450328;1251;142554;-67
2023/01/19 22:50:31;;;;;;;42.00;26.10;;;;;;;-0.21;100.00;98754.84;450330;1252;142938;-65
2023/01/19 23:00:37;;;;;;;39.10;23.10;;;;;;;-0.28;100.00;98748.21;449502;1251;145798;-64
2023/01/19 23:10:43;;;;;;;38.00;24.40;;;;;;;-0.36;100.00;98751.39;450275;1252;144078;-65
2023/01/19 23:20:49;;;;;;;39.20;24.00;;;;;;;-0.40;100.00;98749.46;450236;1251;142126;-66
2023/01/19 23:30:55;;;;;;;36.00;22.90;;;;;;;-0.50;100.00;98755.95;449000;1250;144416;-66
2023/01/19 23:41:01;;;;;;;29.70;18.50;;;;;;;-0.51;100.00;98768.21;433199;1255;147387;-66
2023/01/19 23:51:11;;;;;;;26.00;17.60;;;;;;;-0.54;100.00;98786.52;442988;1252;144184;-66
